SLRI/RIB METAR and TAF weather

Enter ICAO airport designator
Station Type Date Time Source
SLRI METAR 2019/08/23 16:00 UTC NOAA

SLRI 231600Z 16008KT 5000 FU NSC 31/19 Q1018


Station Type Date Time Source
SLRI Decoded METAR 2019/08/23 16:00 UTC NOAA

Station name not available
Aug 23, 2019 - 12:00 PM EDT / 2019.08.23 1600 UTC
Wind: from the SSE (160 degrees) at 9 MPH (8 KT):0
Visibility: 3 mile(s):0
Weather: smoke
Temperature: 87 F (31 C)
Dew Point: 66 F (19 C)
Relative Humidity: 48%
Pressure (altimeter): 30.06 in. Hg (1018 hPa)
ob: SLRI 231600Z 16008KT 5000 FU NSC 31/19 Q1018
cycle: 16

Station Type Date Time Source
SLRI TAF 2015/11/18 00:29 UTC NOAA

TAF SLRI 182200Z 1900/1924 00000KT 9999 FEW015 TX37/1919Z TN23/1910Z
BECMG 1912/1914 33011KT SCT020
TEMPO 1919/1922 8000 VCSH FEW020 FEW023CB BKN080

Example: see airport list